createdAt,value
2017-12-01T00:02:34.855Z,4.60
2017-12-01T00:17:34.720Z,4.50
2017-12-01T00:32:33.705Z,4.80
2017-12-01T00:47:35.075Z,4.60
2017-12-01T01:02:35.055Z,5.00
2017-12-01T01:17:35.490Z,5.13
2017-12-01T01:32:36.914Z,5.60
2017-12-01T01:47:34.327Z,5.70
2017-12-01T02:02:35.470Z,5.60
2017-12-01T02:17:35.229Z,5.27
2017-12-01T02:32:35.149Z,4.93
2017-12-01T02:47:33.891Z,6.20
2017-12-01T03:02:34.714Z,7.23
2017-12-01T03:17:33.966Z,8.80
2017-12-01T03:32:34.287Z,6.80
2017-12-01T03:47:34.762Z,6.70
2017-12-01T04:02:35.825Z,8.77
2017-12-01T04:17:34.149Z,6.80
2017-12-01T04:32:34.024Z,8.30
2017-12-01T04:47:36.920Z,9.57
2017-12-01T05:02:35.192Z,9.60
2017-12-01T05:17:35.152Z,7.40
2017-12-01T05:32:39.239Z,12.60
2017-12-01T05:47:34.876Z,13.07
2017-12-01T06:02:38.372Z,13.17
2017-12-01T06:17:35.023Z,16.00
2017-12-01T06:32:38.552Z,17.07
2017-12-01T06:47:36.380Z,18.80
2017-12-01T07:02:34.491Z,18.47
2017-12-01T07:17:34.715Z,20.40
2017-12-01T07:32:34.831Z,6.80
2017-12-01T07:47:35.027Z,2.70
2017-12-01T08:02:35.199Z,3.23
2017-12-01T08:17:36.461Z,4.00
2017-12-01T08:32:36.078Z,4.70
2017-12-01T08:47:36.931Z,3.73
2017-12-01T09:02:36.911Z,3.60
2017-12-01T09:17:34.703Z,5.40
2017-12-01T09:32:34.545Z,3.27
2017-12-01T09:47:34.990Z,3.70
2017-12-01T10:02:35.181Z,4.10
2017-12-01T10:17:35.625Z,3.10
2017-12-01T10:32:34.957Z,6.70
2017-12-01T10:47:34.082Z,5.67
2017-12-01T11:02:35.775Z,5.60
2017-12-01T11:17:35.166Z,7.03
2017-12-01T11:32:35.113Z,7.93
2017-12-01T11:47:34.319Z,10.50
2017-12-01T12:02:36.483Z,6.43
2017-12-01T12:17:34.151Z,8.50
2017-12-01T12:32:37.369Z,9.47
2017-12-01T12:47:33.793Z,8.43
2017-12-01T13:02:34.483Z,7.83
2017-12-01T13:17:36.436Z,10.07
2017-12-01T13:32:34.562Z,8.90
2017-12-01T13:47:34.947Z,17.63
2017-12-01T14:02:36.437Z,16.53
2017-12-01T14:17:34.870Z,18.50
2017-12-01T14:32:34.795Z,17.60
2017-12-01T14:47:35.108Z,16.63
2017-12-01T15:02:36.413Z,12.10
2017-12-01T15:17:35.008Z,18.40
2017-12-01T15:32:34.932Z,29.00
2017-12-01T15:47:34.339Z,29.03
2017-12-01T16:02:35.357Z,26.80
2017-12-01T16:17:37.344Z,17.97
2017-12-01T16:32:42.333Z,23.40
2017-12-01T16:47:35.529Z,33.83
2017-12-01T17:02:36.506Z,19.60
2017-12-01T17:17:35.088Z,19.90
2017-12-01T17:32:36.412Z,17.80
2017-12-01T17:47:37.821Z,17.40
2017-12-01T18:02:34.737Z,19.03
2017-12-01T18:17:34.651Z,19.97
2017-12-01T18:32:35.686Z,15.50
2017-12-01T18:47:35.078Z,16.17
2017-12-01T19:02:34.444Z,15.40
2017-12-01T19:17:35.976Z,14.10
2017-12-01T19:32:36.924Z,12.47
2017-12-01T19:47:35.598Z,12.33
2017-12-01T20:02:35.011Z,8.03
2017-12-01T20:17:35.180Z,7.40
2017-12-01T20:32:35.133Z,6.57
2017-12-01T20:47:34.279Z,9.50
2017-12-01T21:02:36.578Z,10.50
2017-12-01T21:17:37.478Z,12.53
2017-12-01T21:32:34.946Z,11.93
2017-12-01T21:47:36.738Z,12.07
2017-12-01T22:02:37.409Z,7.67
2017-12-01T22:17:34.708Z,7.70
2017-12-01T22:32:36.548Z,7.80
2017-12-01T22:47:35.328Z,8.13
2017-12-01T23:02:34.920Z,7.10
2017-12-01T23:17:34.079Z,8.43
2017-12-01T23:32:34.719Z,4.67
2017-12-01T23:47:35.731Z,5.50
